Time;durP1;ratioP1;P1;durP2;ratioP2;P2;SDS_P1;SDS_P2;PMS_P1;PMS_P2;Temp;Humidity;BMP_temperature;BMP_pressure;BME280_temperature;BME280_humidity;BME280_pressure;Samples;Min_cycle;Max_cycle;Signal;HPM_P1;HPM_P2
2021/09/12 00:00:27;;;;;;;50.17;27.73;;;;;;;17.08;100.00;101123.59;5047853;28;20041;-69
2021/09/12 00:02:52;;;;;;;52.07;27.27;;;;;;;17.13;100.00;101120.31;5013999;28;20025;-69
2021/09/12 00:05:17;;;;;;;43.33;25.77;;;;;;;17.06;100.00;101112.19;5047918;28;20066;-68
2021/09/12 00:07:43;;;;;;;52.00;28.00;;;;;;;16.97;100.00;101118.75;5030313;28;20064;-69
2021/09/12 00:10:09;;;;;;;49.13;26.90;;;;;;;16.97;100.00;101116.03;5030003;28;20025;-69
2021/09/12 00:12:34;;;;;;;48.33;24.73;;;;;;;16.98;100.00;101113.16;5047870;28;20044;-69
2021/09/12 00:15:01;;;;;;;41.03;24.83;;;;;;;16.90;100.00;101102.50;5047578;28;20048;-72
2021/09/12 00:17:26;;;;;;;41.45;23.95;;;;;;;17.01;100.00;101101.16;5047769;28;20094;-73
2021/09/12 00:19:51;;;;;;;51.20;25.97;;;;;;;16.98;100.00;101101.53;5047255;28;20041;-73
2021/09/12 00:22:17;;;;;;;49.80;22.30;;;;;;;16.91;100.00;101100.66;5047732;28;20060;-73
2021/09/12 00:24:42;;;;;;;46.20;24.97;;;;;;;16.87;100.00;101111.81;5047365;28;20457;-73
2021/09/12 00:27:07;;;;;;;43.20;22.70;;;;;;;16.88;100.00;101113.50;5046529;28;20370;-73
2021/09/12 00:29:33;;;;;;;41.93;21.50;;;;;;;16.90;100.00;101115.16;5047213;28;20116;-73
2021/09/12 00:31:58;;;;;;;40.17;21.95;;;;;;;16.93;100.00;101106.66;5030184;28;20029;-73
2021/09/12 00:34:24;;;;;;;39.67;21.33;;;;;;;16.96;100.00;101103.59;5047352;28;20378;-73
2021/09/12 00:36:49;;;;;;;49.27;24.60;;;;;;;16.88;100.00;101113.50;5029936;28;20033;-73
2021/09/12 00:39:15;;;;;;;42.38;21.92;;;;;;;16.83;100.00;101105.16;5029718;28;20361;-73
2021/09/12 00:41:41;;;;;;;42.63;22.10;;;;;;;16.88;100.00;101108.13;5047531;28;20028;-73
2021/09/12 00:44:10;;;;;;;40.90;24.85;;;;;;;16.82;100.00;101114.28;5013082;28;20434;-73
2021/09/12 00:46:42;;;;;;;42.40;24.17;;;;;;;16.72;100.00;101100.28;5013446;28;20445;-73
2021/09/12 00:49:07;;;;;;;45.95;23.00;;;;;;;16.72;100.00;101105.66;5046868;28;20123;-73
2021/09/12 00:51:33;;;;;;;40.63;22.90;;;;;;;16.76;100.00;101101.53;5047209;28;20025;-73
2021/09/12 00:54:01;;;;;;;40.90;21.15;;;;;;;16.71;100.00;101101.28;5013329;28;20235;-73
2021/09/12 00:56:29;;;;;;;38.70;21.45;;;;;;;16.73;100.00;101110.00;5046279;28;20044;-74
2021/09/12 00:58:56;;;;;;;44.00;23.08;;;;;;;16.80;100.00;101102.84;5046200;28;20037;-73
2021/09/12 01:01:25;;;;;;;36.92;20.30;;;;;;;16.77;100.00;101105.91;5013031;28;20466;-73
2021/09/12 01:03:52;;;;;;;31.42;19.25;;;;;;;16.88;100.00;101102.72;5046269;28;20025;-73
2021/09/12 01:06:18;;;;;;;34.95;19.50;;;;;;;16.74;100.00;101098.22;5046729;28;20037;-73
2021/09/12 01:08:43;;;;;;;34.00;20.40;;;;;;;16.81;100.00;101101.84;5046506;28;20037;-73
2021/09/12 01:11:09;;;;;;;36.17;20.33;;;;;;;16.84;100.00;101108.69;5047227;28;20029;-73
2021/09/12 01:13:38;;;;;;;33.47;20.67;;;;;;;16.72;100.00;101105.66;5029574;28;20029;-73
2021/09/12 01:16:18;;;;;;;34.45;20.33;;;;;;;16.75;100.00;101102.56;5046643;28;20111;-73
2021/09/12 01:18:45;;;;;;;39.08;20.25;;;;;;;16.75;100.00;101107.97;5046586;28;20064;-73
2021/09/12 01:21:14;;;;;;;;;;;;;;;16.75;100.00;101109.81;5047612;28;20473;-73
2021/09/12 01:23:40;;;;;;;33.42;18.48;;;;;;;16.72;100.00;101102.97;5047031;28;19952;-73
2021/09/12 01:26:06;;;;;;;38.20;21.60;;;;;;;16.64;100.00;101113.88;5046836;28;20122;-73
2021/09/12 01:28:31;;;;;;;36.53;19.80;;;;;;;16.67;100.00;101108.94;5046820;28;20515;-73
2021/09/12 01:30:57;;;;;;;36.90;18.50;;;;;;;16.71;100.00;101103.97;5029238;28;20029;-73
2021/09/12 01:33:22;;;;;;;36.73;20.57;;;;;;;16.65;100.00;101105.59;5046763;28;20041;-73
2021/09/12 01:35:48;;;;;;;45.27;21.17;;;;;;;16.67;100.00;101105.41;5046838;28;20287;-73
2021/09/12 01:38:13;;;;;;;40.43;20.77;;;;;;;16.64;100.00;101112.00;5028807;28;20117;-73
2021/09/12 01:40:39;;;;;;;35.03;19.38;;;;;;;16.57;100.00;101112.97;5029442;28;20040;-73
2021/09/12 01:43:04;;;;;;;38.37;19.50;;;;;;;16.62;100.00;101102.44;5046766;28;20060;-73
2021/09/12 01:45:30;;;;;;;45.90;22.23;;;;;;;16.53;100.00;101099.06;5029113;28;20275;-73
2021/09/12 01:48:01;;;;;;;42.33;21.67;;;;;;;16.46;100.00;101098.16;5028891;28;20056;-73
2021/09/12 01:50:28;;;;;;;42.53;21.13;;;;;;;16.48;100.00;101098.78;5028854;28;20048;-73
2021/09/12 01:52:54;;;;;;;41.53;20.27;;;;;;;16.49;100.00;101113.13;5012559;28;20331;-73
2021/09/12 01:55:20;;;;;;;42.90;21.65;;;;;;;16.52;100.00;101104.63;5029038;28;20052;-73
2021/09/12 01:57:46;;;;;;;40.60;20.33;;;;;;;16.54;100.00;101099.91;5045217;28;20043;-73
2021/09/12 02:00:11;;;;;;;34.35;20.05;;;;;;;16.49;100.00;101096.94;5046511;28;20198;-73
2021/09/12 02:02:37;;;;;;;36.23;21.70;;;;;;;16.48;100.00;101095.25;5028965;28;20304;-73
2021/09/12 02:05:03;;;;;;;36.97;19.90;;;;;;;16.56;100.00;101098.66;5045337;28;20832;-73
2021/09/12 02:07:29;;;;;;;36.47;21.08;;;;;;;16.57;100.00;101094.94;5047052;28;20021;-73
2021/09/12 02:09:54;;;;;;;38.43;21.50;;;;;;;16.55;100.00;101090.78;5032154;28;20029;-73
2021/09/12 02:12:19;;;;;;;38.07;21.30;;;;;;;16.57;100.00;101099.50;5016509;28;20090;-73
2021/09/12 02:14:45;;;;;;;39.00;21.50;;;;;;;16.56;100.00;101095.97;5049779;28;20083;-73
2021/09/12 02:17:10;;;;;;;37.10;20.40;;;;;;;16.52;100.00;101093.84;5032558;28;20130;-73
2021/09/12 02:19:35;;;;;;;32.80;19.03;;;;;;;16.57;100.00;101094.94;5049828;28;20069;-73
2021/09/12 02:22:01;;;;;;;39.00;21.73;;;;;;;16.59;100.00;101092.06;5032586;28;20047;-73
2021/09/12 02:24:26;;;;;;;37.40;21.17;;;;;;;16.53;100.00;101096.38;5049972;28;20052;-73
2021/09/12 02:26:51;;;;;;;37.87;21.77;;;;;;;16.58;100.00;101093.94;5049975;28;20072;-73
2021/09/12 02:29:17;;;;;;;35.30;20.10;;;;;;;16.64;100.00;101098.53;5031716;28;20098;-73
2021/09/12 02:31:42;;;;;;;36.20;20.77;;;;;;;16.70;100.00;101105.03;5032368;28;20393;-73
2021/09/12 02:34:07;;;;;;;33.53;20.60;;;;;;;16.63;100.00;101106.81;5032007;28;20427;-73
2021/09/12 02:36:33;;;;;;;35.13;20.97;;;;;;;16.56;100.00;101084.38;5049926;28;20456;-73
2021/09/12 02:38:58;;;;;;;35.83;20.27;;;;;;;16.45;100.00;101094.63;5031737;28;20424;-73
2021/09/12 02:41:24;;;;;;;30.10;19.73;;;;;;;16.44;100.00;101100.22;5049813;28;20288;-73
2021/09/12 02:43:49;;;;;;;33.27;20.27;;;;;;;16.42;100.00;101110.34;5032107;28;20025;-73
2021/09/12 02:46:14;;;;;;;36.47;20.77;;;;;;;16.38;100.00;101117.97;5031762;28;20033;-73
2021/09/12 02:48:40;;;;;;;33.87;20.27;;;;;;;16.46;100.00;101119.72;5049492;28;20053;-73
2021/09/12 02:51:05;;;;;;;36.83;20.87;;;;;;;16.39;100.00;101122.34;5031938;28;20086;-73
2021/09/12 02:53:30;;;;;;;35.90;19.73;;;;;;;16.37;100.00;101121.72;5049730;28;20041;-73
2021/09/12 02:55:56;;;;;;;32.67;19.03;;;;;;;16.40;100.00;101115.09;5031450;28;20041;-73
2021/09/12 02:58:21;;;;;;;34.00;21.07;;;;;;;16.42;100.00;101119.25;5049110;28;20024;-73
2021/09/12 03:00:46;;;;;;;31.03;17.73;;;;;;;16.46;100.00;101119.72;5049328;28;20040;-73
2021/09/12 03:03:12;;;;;;;35.27;21.10;;;;;;;16.49;100.00;101122.03;5049495;28;20033;-73
2021/09/12 03:05:37;;;;;;;34.07;20.03;;;;;;;16.43;100.00;101120.91;5049009;28;20446;-73
2021/09/12 03:08:03;;;;;;;36.43;20.37;;;;;;;16.44;100.00;101122.59;5031784;28;20116;-73
2021/09/12 03:10:28;;;;;;;44.80;21.50;;;;;;;16.38;100.00;101126.06;5030707;28;20486;-73
2021/09/12 03:12:53;;;;;;;37.60;21.83;;;;;;;16.40;100.00;101121.31;5049247;28;20036;-73
2021/09/12 03:15:19;;;;;;;44.07;23.33;;;;;;;16.34;100.00;101118.53;5048822;28;20037;-73
2021/09/12 03:17:44;;;;;;;37.53;22.27;;;;;;;16.34;100.00;101113.16;5049049;28;20036;-73
2021/09/12 03:20:10;;;;;;;37.23;21.53;;;;;;;16.31;100.00;101122.47;5030623;28;20029;-73
2021/09/12 03:22:35;;;;;;;40.65;21.77;;;;;;;16.20;100.00;101113.03;5048736;28;20111;-73
2021/09/12 03:25:02;;;;;;;34.53;20.80;;;;;;;16.28;100.00;101120.16;5031042;28;20041;-73
2021/09/12 03:27:28;;;;;;;36.85;22.15;;;;;;;16.30;100.00;101110.03;5048584;28;20029;-73
2021/09/12 03:29:53;;;;;;;39.15;22.58;;;;;;;16.23;100.00;101106.44;5048748;28;20087;-73
2021/09/12 03:32:19;;;;;;;39.50;21.73;;;;;;;16.20;100.00;101112.19;5048895;28;20067;-73
2021/09/12 03:34:44;;;;;;;38.73;23.10;;;;;;;16.09;100.00;101101.94;5048601;28;20091;-73
2021/09/12 03:37:09;;;;;;;35.43;22.93;;;;;;;16.07;100.00;101115.56;5030878;28;20041;-73
2021/09/12 03:39:35;;;;;;;37.77;22.57;;;;;;;16.08;100.00;101117.22;5048349;28;20029;-73
2021/09/12 03:42:00;;;;;;;38.33;22.10;;;;;;;16.09;100.00;101112.69;5048650;28;20107;-73
2021/09/12 03:44:25;;;;;;;44.13;24.20;;;;;;;16.10;100.00;101117.88;5049066;28;20060;-73
2021/09/12 03:46:50;;;;;;;45.43;26.10;;;;;;;16.08;100.00;101121.78;5030573;28;20072;-73
2021/09/12 03:49:16;;;;;;;46.00;23.00;;;;;;;16.08;100.00;101119.09;5048306;28;20083;-73
2021/09/12 03:51:41;;;;;;;41.63;25.17;;;;;;;16.03;100.00;101109.72;5048371;28;20044;-73
2021/09/12 03:54:07;;;;;;;45.30;24.30;;;;;;;16.00;100.00;101109.28;5048138;28;20125;-73
2021/09/12 03:56:32;;;;;;;51.23;25.93;;;;;;;15.95;100.00;101120.63;5048344;28;20120;-73
2021/09/12 03:58:57;;;;;;;50.37;25.80;;;;;;;15.97;100.00;101123.97;5048020;28;20047;-73
2021/09/12 04:01:23;;;;;;;42.70;24.93;;;;;;;15.95;100.00;101112.53;5048514;28;20052;-73
2021/09/12 04:03:48;;;;;;;43.17;24.47;;;;;;;15.93;100.00;101119.97;5048165;28;20063;-73
2021/09/12 04:06:13;;;;;;;48.73;26.40;;;;;;;15.92;100.00;101109.38;5030556;28;20067;-73
2021/09/12 04:08:39;;;;;;;46.20;25.40;;;;;;;15.94;100.00;101115.41;5047100;28;20080;-73
2021/09/12 04:11:04;;;;;;;39.53;22.60;;;;;;;15.95;100.00;101122.47;5030702;28;20503;-73
2021/09/12 04:13:30;;;;;;;37.97;24.03;;;;;;;15.94;100.00;101110.84;5047972;28;20068;-73
2021/09/12 04:15:55;;;;;;;36.50;23.97;;;;;;;15.99;100.00;101118.38;5013930;28;20029;-73
2021/09/12 04:18:20;;;;;;;40.00;21.97;;;;;;;15.96;100.00;101113.38;5030066;28;20374;-73
2021/09/12 04:20:46;;;;;;;43.67;23.23;;;;;;;15.92;100.00;101106.69;5048140;28;20028;-73
2021/09/12 04:23:11;;;;;;;42.10;23.33;;;;;;;15.91;100.00;101126.56;5048089;28;20128;-73
2021/09/12 04:25:36;;;;;;;42.33;24.17;;;;;;;15.95;100.00;101119.78;5013902;28;20060;-73
2021/09/12 04:28:02;;;;;;;41.83;24.60;;;;;;;15.93;100.00;101125.34;5047773;28;20036;-73
2021/09/12 04:30:27;;;;;;;40.37;24.13;;;;;;;15.86;100.00;101124.44;5046403;28;20125;-73
2021/09/12 04:32:52;;;;;;;42.00;24.57;;;;;;;15.85;100.00;101130.84;5047990;28;20060;-73
2021/09/12 04:35:18;;;;;;;42.07;25.20;;;;;;;15.89;100.00;101132.13;5047436;28;20152;-73
2021/09/12 04:37:43;;;;;;;43.97;24.43;;;;;;;15.88;100.00;101126.94;5047733;28;20049;-73
2021/09/12 04:40:09;;;;;;;45.70;25.03;;;;;;;15.88;100.00;101129.66;5047332;28;20025;-73
2021/09/12 04:42:34;;;;;;;43.78;25.42;;;;;;;15.83;100.00;101130.22;5047728;28;20036;-73
2021/09/12 04:45:00;;;;;;;43.43;25.80;;;;;;;15.81;100.00;101133.06;5047553;28;20044;-73
2021/09/12 04:47:25;;;;;;;43.97;24.77;;;;;;;15.80;100.00;101126.03;5046757;28;20078;-73
2021/09/12 04:49:50;;;;;;;50.33;24.70;;;;;;;15.90;100.00;101128.44;5029426;28;20125;-73
2021/09/12 04:52:16;;;;;;;43.03;26.60;;;;;;;15.89;100.00;101129.44;5047793;28;20041;-73
2021/09/12 04:54:42;;;;;;;52.70;25.57;;;;;;;15.88;100.00;101125.09;5029772;28;20037;-73
2021/09/12 04:57:07;;;;;;;52.15;26.45;;;;;;;15.89;100.00;101125.91;5046670;28;20033;-73
2021/09/12 04:59:33;;;;;;;48.87;23.43;;;;;;;15.94;100.00;101127.00;5047295;28;20457;-73
2021/09/12 05:01:59;;;;;;;45.38;25.70;;;;;;;15.94;100.00;101132.41;5047647;28;20025;-73
2021/09/12 05:04:24;;;;;;;48.70;27.83;;;;;;;15.98;100.00;101132.88;5029860;28;20094;-73
2021/09/12 05:06:49;;;;;;;44.00;27.17;;;;;;;15.98;100.00;101128.31;5047284;28;20057;-73
2021/09/12 05:09:15;;;;;;;45.40;26.60;;;;;;;16.03;100.00;101135.81;5029220;28;20119;-73
2021/09/12 05:11:40;;;;;;;52.23;29.27;;;;;;;15.99;100.00;101130.00;5029704;28;20131;-73
2021/09/12 05:14:06;;;;;;;45.43;27.10;;;;;;;16.03;100.00;101135.81;5029669;28;20127;-73
2021/09/12 05:16:31;;;;;;;52.55;28.75;;;;;;;16.02;100.00;101132.31;5046927;28;20075;-73
2021/09/12 05:18:56;;;;;;;47.93;29.77;;;;;;;16.05;100.00;101139.16;5046817;28;20071;-73
2021/09/12 05:21:22;;;;;;;55.63;30.60;;;;;;;16.07;100.00;101130.91;5046882;28;20031;-73
2021/09/12 05:23:47;;;;;;;52.63;31.17;;;;;;;16.02;100.00;101139.56;5029686;28;20025;-73
2021/09/12 05:26:12;;;;;;;49.13;30.00;;;;;;;16.09;100.00;101145.03;5046654;28;20037;-73
2021/09/12 05:28:38;;;;;;;54.13;31.70;;;;;;;16.06;100.00;101140.00;5046079;28;20059;-73
2021/09/12 05:31:03;;;;;;;55.73;29.63;;;;;;;16.05;100.00;101144.53;5029462;28;20497;-73
2021/09/12 05:33:30;;;;;;;56.42;29.48;;;;;;;16.10;100.00;101130.53;5013025;28;20036;-73
2021/09/12 05:35:56;;;;;;;46.33;28.50;;;;;;;16.14;100.00;101138.03;5029028;28;20144;-73
2021/09/12 05:38:21;;;;;;;;;;;;;;;16.19;100.00;101138.28;5047106;28;20029;-73
2021/09/12 05:40:47;;;;;;;48.78;29.80;;;;;;;16.24;100.00;101137.72;5047014;28;19970;-73
2021/09/12 05:43:13;;;;;;;52.37;31.17;;;;;;;16.25;100.00;101139.41;5049769;28;20402;-73
2021/09/12 05:45:38;;;;;;;52.50;31.17;;;;;;;16.21;100.00;101143.50;5051525;28;20021;-72
2021/09/12 05:48:04;;;;;;;55.67;32.37;;;;;;;16.23;100.00;101138.75;5033834;28;20051;-73
2021/09/12 05:50:29;;;;;;;47.47;30.30;;;;;;;16.29;100.00;101137.97;5034058;28;20051;-73
2021/09/12 05:52:55;;;;;;;48.30;29.17;;;;;;;16.27;100.00;101137.34;5034099;28;20021;-73
2021/09/12 05:55:20;;;;;;;46.43;28.43;;;;;;;16.33;100.00;101150.06;5051633;28;20041;-73
2021/09/12 05:57:45;;;;;;;50.97;27.73;;;;;;;16.36;100.00;101146.13;5051397;28;20063;-72
2021/09/12 06:00:11;;;;;;;50.13;27.47;;;;;;;16.42;100.00;101146.22;5050639;28;20040;-72
2021/09/12 06:02:38;;;;;;;47.45;28.42;;;;;;;16.52;100.00;101136.97;5033666;28;20062;-72
2021/09/12 06:05:03;;;;;;;;;;;;;;;16.52;100.00;101142.38;5051820;28;20041;-72
2021/09/12 06:07:30;;;;;;;44.17;25.83;;;;;;;16.55;100.00;101144.66;5033777;28;19919;-72
2021/09/12 06:09:56;;;;;;;50.53;30.10;;;;;;;16.51;100.00;101143.41;5050439;28;20135;-72
2021/09/12 06:12:21;;;;;;;44.53;26.23;;;;;;;16.54;100.00;101149.25;5050222;28;20517;-72
2021/09/12 06:14:47;;;;;;;49.23;27.33;;;;;;;16.57;100.00;101143.44;5049887;28;20029;-72
2021/09/12 06:17:12;;;;;;;42.40;28.57;;;;;;;16.53;100.00;101135.94;5050129;28;20457;-72
2021/09/12 06:19:37;;;;;;;50.63;28.07;;;;;;;16.59;100.00;101146.78;5049733;28;20370;-72
2021/09/12 06:22:05;;;;;;;51.80;29.37;;;;;;;16.58;100.00;101147.00;5050169;28;20037;-72
2021/09/12 06:24:30;;;;;;;51.70;28.30;;;;;;;16.61;100.00;101138.53;5032705;28;20028;-72
2021/09/12 06:26:55;;;;;;;57.00;29.30;;;;;;;16.63;100.00;101147.25;5033402;28;20071;-72
2021/09/12 06:29:21;;;;;;;49.03;26.57;;;;;;;16.65;100.00;101145.22;5050470;28;20334;-72
2021/09/12 06:31:47;;;;;;;46.90;27.48;;;;;;;16.66;100.00;101146.88;5050644;28;20028;-72
2021/09/12 06:34:12;;;;;;;42.05;26.00;;;;;;;16.66;100.00;101136.91;5049380;28;20389;-72
2021/09/12 06:36:38;;;;;;;49.03;27.88;;;;;;;16.67;100.00;101149.38;5050506;28;20091;-72
2021/09/12 06:39:03;;;;;;;43.03;26.07;;;;;;;16.57;100.00;101142.63;5050047;28;20479;-72
2021/09/12 06:41:28;;;;;;;47.40;27.23;;;;;;;16.52;100.00;101142.38;5050340;28;20033;-72
2021/09/12 06:43:54;;;;;;;41.77;27.07;;;;;;;16.75;100.00;101142.19;5050043;28;20207;-72
2021/09/12 06:46:19;;;;;;;42.97;26.23;;;;;;;16.82;100.00;101140.41;5050121;28;20090;-72
2021/09/12 06:48:44;;;;;;;42.00;24.40;;;;;;;16.93;100.00;101139.88;5049995;28;20135;-72
2021/09/12 06:51:11;;;;;;;41.43;24.97;;;;;;;17.01;100.00;101144.31;5032364;28;20443;-72
2021/09/12 06:53:37;;;;;;;46.08;25.45;;;;;;;17.07;100.00;101144.34;5031876;28;20071;-72
2021/09/12 06:56:02;;;;;;;36.83;24.87;;;;;;;17.20;100.00;101142.78;5032616;28;20103;-72
2021/09/12 06:58:28;;;;;;;37.75;23.58;;;;;;;17.28;100.00;101143.47;5014920;28;20048;-72
2021/09/12 07:00:53;;;;;;;41.43;25.37;;;;;;;17.51;100.00;101147.75;5050184;28;20029;-72
2021/09/12 07:03:18;;;;;;;39.37;23.97;;;;;;;17.43;100.00;101145.22;5032893;28;20033;-73
2021/09/12 07:05:44;;;;;;;42.00;22.60;;;;;;;17.36;100.00;101144.34;5049693;28;20040;-73
2021/09/12 07:08:09;;;;;;;38.38;22.15;;;;;;;17.28;100.00;101145.34;5049882;28;20094;-72
2021/09/12 07:10:35;;;;;;;37.60;23.57;;;;;;;17.60;100.00;101143.88;5031954;28;20136;-72
2021/09/12 07:13:00;;;;;;;40.27;23.07;;;;;;;17.92;99.22;101139.69;5050354;28;20071;-73
2021/09/12 07:15:25;;;;;;;31.77;19.93;;;;;;;18.51;96.02;101135.50;5049822;28;20473;-72
2021/09/12 07:17:51;;;;;;;39.03;20.77;;;;;;;18.46;93.18;101139.88;5050065;28;20041;-73
2021/09/12 07:20:16;;;;;;;29.33;19.77;;;;;;;18.19;95.01;101141.66;5032257;28;20567;-72
2021/09/12 07:22:41;;;;;;;32.72;20.05;;;;;;;17.96;95.76;101141.97;5050158;28;20397;-72
2021/09/12 07:25:07;;;;;;;33.37;20.90;;;;;;;17.91;96.96;101139.88;5049716;28;20040;-72
2021/09/12 07:27:33;;;;;;;29.63;20.00;;;;;;;18.17;96.31;101141.03;5031943;28;20032;-72
2021/09/12 07:29:58;;;;;;;37.85;21.42;;;;;;;18.14;95.85;101148.53;5049688;28;20036;-73
2021/09/12 07:32:24;;;;;;;30.53;21.07;;;;;;;17.98;96.09;101151.59;5049769;28;20032;-73
2021/09/12 07:34:49;;;;;;;32.97;20.63;;;;;;;18.11;95.11;101145.38;5049708;28;20037;-72
2021/09/12 07:37:14;;;;;;;33.87;20.53;;;;;;;18.09;95.16;101142.88;5049559;28;20128;-72
2021/09/12 07:39:39;;;;;;;33.13;20.60;;;;;;;17.84;96.42;101149.81;5049476;28;20076;-72
2021/09/12 07:42:06;;;;;;;39.85;24.20;;;;;;;17.76;97.79;101149.97;5049532;28;20461;-72
2021/09/12 07:44:31;;;;;;;30.57;22.03;;;;;;;17.59;98.35;101147.59;5049168;28;20032;-72
2021/09/12 07:46:56;;;;;;;35.27;22.17;;;;;;;17.48;98.42;101154.38;5049236;28;20037;-72
2021/09/12 07:49:22;;;;;;;35.43;22.03;;;;;;;17.37;98.76;101151.41;5031524;28;20040;-72
2021/09/12 07:51:47;;;;;;;37.57;22.70;;;;;;;17.51;99.59;101156.72;5049312;28;20112;-72
2021/09/12 07:54:12;;;;;;;33.63;22.43;;;;;;;17.51;99.36;101150.44;5049181;28;20029;-72
2021/09/12 07:56:38;;;;;;;36.37;22.20;;;;;;;17.81;98.09;101151.06;5031654;28;20056;-73
2021/09/12 07:59:03;;;;;;;30.33;20.77;;;;;;;17.99;97.38;101153.22;5048945;28;20037;-73
2021/09/12 08:01:29;;;;;;;32.37;21.87;;;;;;;17.96;95.97;101153.66;5049236;28;20091;-72
2021/09/12 08:03:54;;;;;;;31.50;20.57;;;;;;;18.04;95.94;101150.75;5031426;28;20268;-72
2021/09/12 08:06:21;;;;;;;27.30;18.73;;;;;;;18.04;95.68;101149.94;5047753;28;21075;-72
2021/09/12 08:08:47;;;;;;;30.50;20.10;;;;;;;17.90;95.97;101162.53;5048327;28;20542;-72
2021/09/12 08:11:12;;;;;;;26.43;18.40;;;;;;;18.08;95.33;101156.59;5049101;28;20037;-72
2021/09/12 08:13:37;;;;;;;28.37;17.37;;;;;;;17.88;95.39;101159.22;5014884;28;20123;-71
2021/09/12 08:16:03;;;;;;;26.63;18.63;;;;;;;18.07;94.91;101144.94;5048730;28;20451;-72
2021/09/12 08:18:28;;;;;;;26.35;19.15;;;;;;;18.05;93.72;101156.97;5047421;28;20074;-72
2021/09/12 08:20:54;;;;;;;28.43;17.37;;;;;;;18.52;93.33;101155.28;5031320;28;20037;-72
2021/09/12 08:23:19;;;;;;;23.17;15.63;;;;;;;19.40;89.83;101141.56;5031140;28;20106;-72
2021/09/12 08:25:46;;;;;;;23.43;14.90;;;;;;;20.45;83.91;101152.22;5048814;28;20029;-72
2021/09/12 08:28:12;;;;;;;22.75;15.48;;;;;;;20.36;82.26;101148.94;5048690;28;20045;-72
2021/09/12 08:30:37;;;;;;;22.50;16.27;;;;;;;20.20;80.59;101150.25;5030645;28;20083;-72
2021/09/12 08:33:09;;;;;;;20.47;14.03;;;;;;;20.51;80.38;101145.94;5048789;28;20032;-72
2021/09/12 08:35:34;;;;;;;19.58;13.48;;;;;;;21.00;80.09;101155.22;5048104;28;20037;-72
2021/09/12 08:37:59;;;;;;;22.37;14.20;;;;;;;21.25;77.78;101141.59;5014656;28;20143;-72
2021/09/12 08:40:25;;;;;;;23.33;13.03;;;;;;;21.86;76.13;101137.19;5048184;28;20096;-72
2021/09/12 08:42:50;;;;;;;18.50;12.40;;;;;;;22.26;76.40;101146.75;5048646;28;20060;-73
2021/09/12 08:45:16;;;;;;;16.35;12.20;;;;;;;22.80;73.06;101149.53;5014254;28;20462;-73
2021/09/12 08:47:42;;;;;;;21.47;12.13;;;;;;;21.77;75.88;101151.31;5030753;28;20032;-72
2021/09/12 08:50:07;;;;;;;23.13;14.15;;;;;;;21.95;75.12;101151.31;5030161;28;20037;-73
2021/09/12 08:52:33;;;;;;;21.77;14.80;;;;;;;22.16;73.62;101155.44;5030871;28;20041;-72
2021/09/12 08:54:58;;;;;;;17.27;12.33;;;;;;;21.47;75.38;101157.53;5048048;28;20029;-72
2021/09/12 08:57:23;;;;;;;19.13;12.60;;;;;;;21.86;76.54;101158.13;5048331;28;20590;-73
2021/09/12 08:59:50;;;;;;;16.70;12.13;;;;;;;21.70;75.86;101154.97;5030496;28;20877;-72
2021/09/12 09:02:16;;;;;;;17.70;12.40;;;;;;;21.18;78.28;101153.59;5048057;28;20120;-73
2021/09/12 09:04:42;;;;;;;18.38;12.65;;;;;;;20.80;79.68;101159.97;5047753;28;20072;-72
2021/09/12 09:07:11;;;;;;;18.63;15.13;;;;;;;20.71;77.46;101155.84;5030337;28;20076;-72
2021/09/12 09:09:37;;;;;;;16.85;12.18;;;;;;;20.70;78.94;101159.59;5047507;28;20033;-72
2021/09/12 09:12:18;;;;;;;;;;;;;;;20.90;77.96;101160.28;5048338;28;20091;-72
2021/09/12 09:14:43;;;;;;;18.77;13.20;;;;;;;20.43;78.64;101160.56;5047674;28;19999;-72
2021/09/12 09:17:19;;;;;;;17.13;11.13;;;;;;;20.99;77.41;101161.69;5033853;28;20128;-72
2021/09/12 09:19:52;;;;;;;18.23;13.32;;;;;;;21.11;77.24;101164.50;5036879;28;20048;-72
2021/09/12 09:22:31;;;;;;;12.35;9.25;;;;;;;22.13;75.10;101155.91;5054600;28;20064;-72
2021/09/12 09:25:17;;;;;;;16.85;12.30;;;;;;;20.98;75.72;101164.63;5036790;28;20029;-72
2021/09/12 09:28:09;;;;;;;15.85;10.32;;;;;;;21.35;76.08;101157.38;5036172;28;20049;-72
2021/09/12 09:30:54;;;;;;;13.88;10.55;;;;;;;21.18;74.87;101157.13;5036582;28;20037;-72
2021/09/12 09:33:29;;;;;;;15.83;11.03;;;;;;;20.84;76.04;101158.47;5036913;28;20037;-72
2021/09/12 09:35:56;;;;;;;19.20;11.23;;;;;;;20.28;78.72;101165.47;5054285;28;20525;-72
2021/09/12 09:38:24;;;;;;;19.60;10.70;;;;;;;20.61;79.15;101169.91;5036536;28;20035;-72
2021/09/12 09:40:57;;;;;;;16.98;12.40;;;;;;;20.60;77.55;101171.78;5054580;28;20493;-72
2021/09/12 09:43:22;;;;;;;15.98;12.05;;;;;;;20.49;78.46;101164.31;5054476;28;20045;-71
2021/09/12 09:45:48;;;;;;;19.17;12.80;;;;;;;20.74;80.30;101161.66;5020206;28;20098;-72
2021/09/12 09:48:14;;;;;;;22.07;12.37;;;;;;;21.31;77.24;101148.03;5054427;28;20028;-72
2021/09/12 09:50:41;;;;;;;21.35;12.15;;;;;;;20.81;77.37;101150.75;5036728;28;20052;-72
2021/09/12 09:53:11;;;;;;;19.27;11.52;;;;;;;21.43;76.98;101148.97;5054262;28;20120;-73
2021/09/12 09:55:36;;;;;;;14.55;10.30;;;;;;;22.73;71.54;101147.75;5053451;28;20037;-73
2021/09/12 09:58:07;;;;;;;16.33;10.37;;;;;;;22.46;72.24;101150.03;5054319;28;20106;-74
2021/09/12 10:00:32;;;;;;;11.52;9.25;;;;;;;22.53;69.65;101128.19;5054232;28;20104;-72
2021/09/12 10:02:59;;;;;;;14.40;9.00;;;;;;;23.47;67.28;101141.88;5036924;28;20112;-72
2021/09/12 10:05:25;;;;;;;13.93;8.88;;;;;;;23.48;69.34;101150.88;5054140;28;20476;-73
2021/09/12 10:07:51;;;;;;;13.75;9.15;;;;;;;23.83;66.55;101137.22;5036739;28;20055;-73
2021/09/12 10:10:19;;;;;;;12.18;7.63;;;;;;;24.28;66.73;101150.13;5035677;28;20033;-73
2021/09/12 10:12:55;;;;;;;7.75;6.72;;;;;;;25.10;64.10;101126.97;5036590;28;20527;-73
2021/09/12 10:15:28;;;;;;;11.50;7.68;;;;;;;23.64;65.03;101138.44;5054008;28;20124;-73
2021/09/12 10:17:54;;;;;;;11.48;7.53;;;;;;;23.02;66.61;101139.78;5054074;28;20131;-72
2021/09/12 10:20:28;;;;;;;11.73;7.43;;;;;;;23.91;64.83;101141.50;5053859;28;20089;-73
2021/09/12 10:23:05;;;;;;;10.90;7.85;;;;;;;22.37;68.11;101140.53;5053131;28;20075;-73
2021/09/12 10:25:31;;;;;;;11.00;7.95;;;;;;;22.17;69.38;101142.66;5050787;28;20037;-73
2021/09/12 10:27:59;;;;;;;9.75;6.53;;;;;;;23.10;67.63;101139.41;5032523;28;20377;-73
2021/09/12 10:30:24;;;;;;;10.80;7.50;;;;;;;22.76;69.54;101146.47;5013798;28;20033;-73
2021/09/12 10:33:09;;;;;;;15.57;7.97;;;;;;;22.40;69.45;101137.34;5048249;28;20059;-73
2021/09/12 10:35:48;;;;;;;11.90;8.18;;;;;;;21.71;71.49;101144.94;5047881;28;20582;-73
2021/09/12 10:38:22;;;;;;;13.65;9.48;;;;;;;21.33;72.38;101143.22;5030274;28;20120;-73
2021/09/12 10:40:48;;;;;;;10.85;6.95;;;;;;;20.77;72.98;101149.56;5048742;28;20364;-73
2021/09/12 10:43:29;;;;;;;10.90;6.37;;;;;;;20.45;73.23;101136.78;5049401;28;20047;-73
2021/09/12 10:46:14;;;;;;;10.55;6.65;;;;;;;20.83;76.14;101148.66;5031943;28;20144;-73
2021/09/12 10:48:44;;;;;;;14.02;8.40;;;;;;;22.05;71.90;101145.34;5031727;28;20044;-72
2021/09/12 10:51:09;;;;;;;14.30;8.23;;;;;;;22.49;69.59;101130.53;5049377;28;20025;-73
2021/09/12 10:54:01;;;;;;;13.90;6.90;;;;;;;23.07;70.40;101137.16;5031928;28;20369;-73
2021/09/12 10:56:31;;;;;;;14.57;7.30;;;;;;;23.07;69.38;101125.44;5008629;28;20103;-73
2021/09/12 10:59:05;;;;;;;8.57;5.63;;;;;;;23.53;66.29;101130.03;5031788;28;20539;-73
2021/09/12 11:01:34;;;;;;;8.05;6.05;;;;;;;23.16;68.17;101135.75;5049334;28;20118;-73
2021/09/12 11:04:01;;;;;;;10.85;7.38;;;;;;;21.99;70.45;101140.84;5049638;28;20354;-73